createdAt,value
2017-04-08T00:00:07.899Z,22.42
2017-04-08T00:01:08.189Z,22.54
2017-04-08T00:02:07.920Z,22.42
2017-04-08T00:03:08.235Z,22.43
2017-04-08T00:04:08.302Z,22.47
2017-04-08T00:05:08.262Z,22.47
2017-04-08T00:06:07.943Z,22.47
2017-04-08T00:07:07.946Z,22.37
2017-04-08T00:08:07.592Z,22.39
2017-04-08T00:09:07.914Z,22.37
2017-04-08T00:10:08.019Z,22.45
2017-04-08T00:11:08.282Z,22.4
2017-04-08T00:12:07.927Z,22.42
2017-04-08T00:13:07.939Z,22.4
2017-04-08T00:14:07.945Z,22.39
2017-04-08T00:15:07.997Z,22.37
2017-04-08T00:16:08.281Z,22.4
2017-04-08T00:17:08.369Z,22.42
2017-04-08T00:18:08.382Z,22.4
2017-04-08T00:19:08.419Z,22.42
2017-04-08T00:20:08.305Z,22.37
2017-04-08T00:21:07.722Z,22.37
2017-04-08T00:22:08.044Z,22.4
2017-04-08T00:23:08.314Z,22.45
2017-04-08T00:24:08.312Z,22.51
2017-04-08T00:25:08.034Z,22.42
2017-04-08T00:26:07.746Z,22.45
2017-04-08T00:27:08.014Z,22.47
2017-04-08T00:28:08.393Z,22.45
2017-04-08T00:29:08.345Z,22.51
2017-04-08T00:30:08.356Z,22.45
2017-04-08T00:31:08.464Z,22.47
2017-04-08T00:32:08.372Z,22.46
2017-04-08T00:33:08.109Z,22.39
2017-04-08T00:34:08.061Z,22.46
2017-04-08T00:35:08.379Z,22.49
2017-04-08T00:36:08.451Z,22.52
2017-04-08T00:37:08.444Z,22.49
2017-04-08T00:38:08.464Z,22.52
2017-04-08T00:39:08.455Z,22.49
2017-04-08T00:40:08.423Z,22.47
2017-04-08T00:41:08.425Z,22.46
2017-04-08T00:42:08.480Z,22.49
2017-04-08T00:43:08.431Z,22.58
2017-04-08T00:44:08.499Z,22.52
2017-04-08T00:45:08.511Z,22.51
2017-04-08T00:46:08.190Z,22.45
2017-04-08T00:47:08.149Z,22.51
2017-04-08T00:48:08.511Z,22.49
2017-04-08T00:49:08.163Z,22.47
2017-04-08T00:50:09.022Z,22.49
2017-04-08T00:51:08.182Z,22.47
2017-04-08T00:52:08.499Z,22.45
2017-04-08T00:53:08.186Z,22.55
2017-04-08T00:54:08.562Z,22.55
2017-04-08T00:55:08.505Z,22.54
2017-04-08T00:56:08.520Z,22.51
2017-04-08T00:57:08.586Z,22.47
2017-04-08T00:58:08.634Z,22.49
2017-04-08T00:59:08.538Z,22.51
2017-04-08T01:00:08.546Z,22.45
2017-04-08T01:01:08.618Z,22.51
2017-04-08T01:02:08.606Z,22.54
2017-04-08T01:03:08.569Z,22.51
2017-04-08T01:04:08.573Z,22.49
2017-04-08T01:05:08.361Z,22.46
2017-04-08T01:06:08.632Z,22.46
2017-04-08T01:07:08.632Z,22.54
2017-04-08T01:08:08.591Z,22.47
2017-04-08T01:09:08.661Z,22.52
2017-04-08T01:10:08.657Z,22.52
2017-04-08T01:11:08.292Z,22.51
2017-04-08T01:12:08.351Z,22.49
2017-04-08T01:13:08.727Z,22.47
2017-04-08T01:14:08.683Z,22.54
2017-04-08T01:15:08.632Z,22.51
2017-04-08T01:16:08.087Z,22.57
2017-04-08T01:17:08.390Z,22.47
2017-04-08T01:18:08.333Z,22.49
2017-04-08T01:19:08.671Z,22.58
2017-04-08T01:20:08.675Z,22.52
2017-04-08T01:21:08.415Z,22.57
2017-04-08T01:22:08.723Z,22.58
2017-04-08T01:23:08.677Z,22.54
2017-04-08T01:24:08.746Z,22.55
2017-04-08T01:25:08.435Z,22.43
2017-04-08T01:26:08.390Z,22.54
2017-04-08T01:27:08.442Z,22.46
2017-04-08T01:28:08.768Z,22.54
2017-04-08T01:29:08.768Z,22.55
2017-04-08T01:30:08.872Z,22.6
2017-04-08T01:31:08.152Z,22.62
2017-04-08T01:32:08.531Z,22.51
2017-04-08T01:33:08.803Z,22.51
2017-04-08T01:34:08.806Z,22.47
2017-04-08T01:35:08.758Z,22.45
2017-04-08T01:36:08.446Z,22.58
2017-04-08T01:37:08.461Z,22.51
2017-04-08T01:38:08.781Z,22.52
2017-04-08T01:39:08.779Z,22.52
2017-04-08T01:40:08.863Z,22.51
2017-04-08T01:41:08.846Z,22.52
2017-04-08T01:42:08.542Z,22.55
2017-04-08T01:43:08.882Z,22.54
2017-04-08T01:44:08.818Z,22.49
2017-04-08T01:45:08.874Z,22.45
2017-04-08T01:46:08.510Z,22.47
2017-04-08T01:47:08.888Z,22.52
2017-04-08T01:48:08.911Z,22.51
2017-04-08T01:49:08.842Z,22.61
2017-04-08T01:50:09.249Z,22.47
2017-04-08T01:51:08.863Z,22.54
2017-04-08T01:52:08.900Z,22.55
2017-04-08T01:53:08.921Z,22.62
2017-04-08T01:54:08.980Z,22.51
2017-04-08T01:55:08.987Z,22.52
2017-04-08T01:56:08.896Z,22.54
2017-04-08T01:57:08.947Z,22.51
2017-04-08T01:58:08.991Z,22.51
2017-04-08T01:59:08.704Z,22.47
2017-04-08T02:00:08.604Z,22.51
2017-04-08T02:01:09.066Z,22.51
2017-04-08T02:02:08.658Z,22.45
2017-04-08T02:03:08.299Z,22.55
2017-04-08T02:04:09.003Z,22.57
2017-04-08T02:05:08.946Z,22.46
2017-04-08T02:06:08.693Z,22.54
2017-04-08T02:07:08.647Z,22.54
2017-04-08T02:08:08.330Z,22.55
2017-04-08T02:09:09.067Z,22.57
2017-04-08T02:10:09.024Z,22.52
2017-04-08T02:11:08.995Z,22.58
2017-04-08T02:12:08.990Z,22.58
2017-04-08T02:13:09.015Z,22.49
2017-04-08T02:14:09.000Z,22.55
2017-04-08T02:15:09.028Z,22.57
2017-04-08T02:16:09.021Z,22.51
2017-04-08T02:17:09.016Z,22.49
2017-04-08T02:18:09.085Z,22.47
2017-04-08T02:19:09.036Z,22.6
2017-04-08T02:20:08.786Z,22.57
2017-04-08T02:21:09.150Z,22.55
2017-04-08T02:22:09.098Z,22.51
2017-04-08T02:23:08.752Z,22.52
2017-04-08T02:24:08.751Z,22.55
2017-04-08T02:25:09.115Z,22.49
2017-04-08T02:26:09.133Z,22.55
2017-04-08T02:27:09.095Z,22.58
2017-04-08T02:28:09.084Z,22.6
2017-04-08T02:29:09.194Z,22.58
2017-04-08T02:30:08.786Z,22.55
2017-04-08T02:31:09.112Z,22.55
2017-04-08T02:32:09.207Z,22.61
2017-04-08T02:33:08.801Z,22.61
2017-04-08T02:34:09.189Z,22.51
2017-04-08T02:35:08.863Z,22.57
2017-04-08T02:36:09.313Z,22.6
2017-04-08T02:37:08.876Z,22.52
2017-04-08T02:38:09.148Z,22.54
2017-04-08T02:39:09.257Z,22.57
2017-04-08T02:40:08.856Z,22.57
2017-04-08T02:41:09.231Z,22.55
2017-04-08T02:42:09.230Z,22.49
2017-04-08T02:43:08.873Z,22.47
2017-04-08T02:44:09.191Z,22.46
2017-04-08T02:45:08.930Z,22.54
2017-04-08T02:46:09.212Z,22.49
2017-04-08T02:47:08.918Z,22.54
2017-04-08T02:48:09.217Z,22.57
2017-04-08T02:49:09.248Z,22.54
2017-04-08T02:50:09.327Z,22.55
2017-04-08T02:51:08.972Z,22.61
2017-04-08T02:52:09.288Z,22.58
2017-04-08T02:53:09.238Z,22.52
2017-04-08T02:54:09.308Z,22.54
2017-04-08T02:55:09.256Z,22.57
2017-04-08T02:56:08.945Z,22.61
2017-04-08T02:57:10.267Z,22.52
2017-04-08T02:58:09.279Z,22.52
2017-04-08T02:59:09.023Z,22.6
2017-04-08T03:00:09.289Z,22.58
2017-04-08T03:01:09.290Z,22.6
2017-04-08T03:02:09.297Z,22.57
2017-04-08T03:03:09.359Z,22.57
2017-04-08T03:04:09.367Z,22.57
2017-04-08T03:05:09.002Z,22.57
2017-04-08T03:06:09.331Z,22.55
2017-04-08T03:07:09.516Z,22.58
2017-04-08T03:08:09.019Z,22.62
2017-04-08T03:09:09.129Z,22.55
2017-04-08T03:10:09.090Z,22.61
2017-04-08T03:11:09.411Z,22.58
2017-04-08T03:12:09.367Z,22.46
2017-04-08T03:13:09.415Z,22.58
2017-04-08T03:14:09.377Z,22.61
2017-04-08T03:15:09.117Z,22.57
2017-04-08T03:16:09.076Z,22.57
2017-04-08T03:17:09.395Z,22.49
2017-04-08T03:18:09.395Z,22.6
2017-04-08T03:19:09.400Z,22.57
2017-04-08T03:20:09.514Z,22.58
2017-04-08T03:21:09.118Z,22.52
2017-04-08T03:22:09.471Z,22.64
2017-04-08T03:23:09.168Z,22.6
2017-04-08T03:24:10.620Z,22.55
2017-04-08T03:25:09.185Z,22.54
2017-04-08T03:26:09.454Z,22.62
2017-04-08T03:27:09.503Z,22.57
2017-04-08T03:28:09.211Z,22.65
2017-04-08T03:29:09.474Z,22.61
2017-04-08T03:30:09.157Z,22.62
2017-04-08T03:31:09.485Z,22.57
2017-04-08T03:32:09.488Z,22.6
2017-04-08T03:33:09.223Z,22.6
2017-04-08T03:34:09.284Z,22.57
2017-04-08T03:35:09.557Z,22.57
2017-04-08T03:36:09.586Z,22.62
2017-04-08T03:37:09.517Z,22.61
2017-04-08T03:38:09.534Z,22.61
2017-04-08T03:39:09.534Z,22.55
2017-04-08T03:40:09.530Z,22.72
2017-04-08T03:41:09.640Z,22.61
2017-04-08T03:42:09.607Z,22.58
2017-04-08T03:43:09.023Z,22.65
2017-04-08T03:44:09.618Z,22.7
2017-04-08T03:45:09.623Z,22.67
2017-04-08T03:46:09.258Z,22.72
2017-04-08T03:47:09.578Z,22.72
2017-04-08T03:48:09.699Z,22.65
2017-04-08T03:49:09.639Z,22.68
2017-04-08T03:50:09.281Z,22.67
2017-04-08T03:51:09.602Z,22.65
2017-04-08T03:52:09.301Z,22.72
2017-04-08T03:53:09.622Z,22.64
2017-04-08T03:54:09.740Z,22.64
2017-04-08T03:55:09.317Z,22.7
2017-04-08T03:56:09.328Z,22.72
2017-04-08T03:57:09.378Z,22.72
2017-04-08T03:58:09.713Z,22.67
2017-04-08T03:59:09.655Z,22.65
2017-04-08T04:00:09.660Z,22.7
2017-04-08T04:01:09.358Z,22.57
2017-04-08T04:02:09.683Z,22.68
2017-04-08T04:03:09.731Z,22.55
2017-04-08T04:04:09.378Z,22.62
2017-04-08T04:05:09.756Z,22.62
2017-04-08T04:06:09.949Z,22.68
2017-04-08T04:07:09.813Z,22.7
2017-04-08T04:08:09.447Z,22.67
2017-04-08T04:09:09.765Z,22.68
2017-04-08T04:10:09.776Z,22.67
2017-04-08T04:11:09.786Z,22.58
2017-04-08T04:12:09.790Z,22.61
2017-04-08T04:13:09.748Z,22.57
2017-04-08T04:14:09.856Z,22.6
2017-04-08T04:15:09.495Z,22.57
2017-04-08T04:16:09.769Z,22.64
2017-04-08T04:17:09.781Z,22.57
2017-04-08T04:18:09.873Z,22.68
2017-04-08T04:19:09.786Z,22.67
2017-04-08T04:20:09.833Z,22.67
2017-04-08T04:21:09.848Z,22.72
2017-04-08T04:22:09.796Z,22.64
2017-04-08T04:23:09.545Z,22.75
2017-04-08T04:24:09.927Z,22.76
2017-04-08T04:25:09.866Z,22.65
2017-04-08T04:26:09.835Z,22.73
2017-04-08T04:27:09.886Z,22.64
2017-04-08T04:28:09.849Z,22.76
2017-04-08T04:29:09.542Z,22.75
2017-04-08T04:30:09.641Z,22.72
2017-04-08T04:31:09.855Z,22.73
2017-04-08T04:32:09.918Z,22.72
2017-04-08T04:33:09.924Z,22.73
2017-04-08T04:34:09.882Z,22.76
2017-04-08T04:35:09.615Z,22.75
2017-04-08T04:36:09.944Z,22.76
2017-04-08T04:37:09.961Z,22.82
2017-04-08T04:38:09.947Z,22.75
2017-04-08T04:39:09.911Z,22.77
2017-04-08T04:40:09.916Z,22.82
2017-04-08T04:41:09.952Z,22.83
2017-04-08T04:42:09.925Z,22.76
2017-04-08T04:43:09.978Z,22.72
2017-04-08T04:44:09.365Z,22.76
2017-04-08T04:45:09.946Z,22.77
2017-04-08T04:46:09.949Z,22.76
2017-04-08T04:47:10.061Z,22.79
2017-04-08T04:48:10.011Z,22.82
2017-04-08T04:49:10.016Z,22.82
2017-04-08T04:50:09.713Z,22.8
2017-04-08T04:51:09.772Z,22.82
2017-04-08T04:52:09.997Z,22.86
2017-04-08T04:53:10.048Z,22.88
2017-04-08T04:54:10.059Z,22.82
2017-04-08T04:55:09.742Z,22.83
2017-04-08T04:56:10.017Z,22.82
2017-04-08T04:57:10.071Z,22.8
2017-04-08T04:58:10.031Z,22.8
2017-04-08T04:59:10.134Z,22.83
2017-04-08T05:00:09.726Z,22.79
2017-04-08T05:01:10.042Z,22.82
2017-04-08T05:02:10.114Z,22.79
2017-04-08T05:03:09.789Z,22.79
2017-04-08T05:04:10.126Z,22.88
2017-04-08T05:05:09.760Z,22.85
2017-04-08T05:06:09.766Z,22.82
2017-04-08T05:07:10.080Z,22.83
2017-04-08T05:08:10.103Z,22.8
2017-04-08T05:09:09.782Z,22.82
2017-04-08T05:10:10.147Z,22.83
2017-04-08T05:11:10.203Z,22.9
2017-04-08T05:12:09.854Z,22.88
2017-04-08T05:13:10.123Z,22.88
2017-04-08T05:14:09.808Z,22.86
2017-04-08T05:15:10.180Z,22.91
2017-04-08T05:16:09.826Z,22.86
2017-04-08T05:17:09.826Z,22.86
2017-04-08T05:18:09.881Z,22.82
2017-04-08T05:19:11.009Z,22.86
2017-04-08T05:20:10.276Z,22.82
2017-04-08T05:21:10.181Z,22.88
2017-04-08T05:22:10.171Z,22.88
2017-04-08T05:23:10.177Z,22.94
2017-04-08T05:24:09.924Z,22.9
2017-04-08T05:25:10.242Z,22.9
2017-04-08T05:26:09.937Z,22.9
2017-04-08T05:27:10.226Z,22.85
2017-04-08T05:28:10.271Z,22.94
2017-04-08T05:29:10.211Z,22.94
2017-04-08T05:30:10.269Z,22.94
2017-04-08T05:31:09.916Z,22.88
2017-04-08T05:32:09.922Z,22.92
2017-04-08T05:33:10.125Z,22.86
2017-04-08T05:34:10.304Z,22.9
2017-04-08T05:35:10.273Z,22.85
2017-04-08T05:36:10.259Z,22.92
2017-04-08T05:37:10.315Z,22.9
2017-04-08T05:38:10.277Z,22.9
2017-04-08T05:39:10.280Z,22.91
2017-04-08T05:40:09.971Z,22.94
2017-04-08T05:41:10.289Z,22.76
2017-04-08T05:42:10.358Z,22.91
2017-04-08T05:43:10.321Z,22.88
2017-04-08T05:44:10.404Z,22.88
2017-04-08T05:45:10.053Z,22.92
2017-04-08T05:46:10.317Z,22.92
2017-04-08T05:47:10.350Z,22.88
2017-04-08T05:48:10.334Z,22.91
2017-04-08T05:49:10.353Z,22.88
2017-04-08T05:50:10.081Z,22.82
2017-04-08T05:51:10.132Z,22.86
2017-04-08T05:52:10.410Z,22.86
2017-04-08T05:53:10.417Z,22.92
2017-04-08T05:54:10.665Z,22.88
2017-04-08T05:55:10.375Z,22.88
2017-04-08T05:56:10.068Z,22.91
2017-04-08T05:57:10.074Z,22.85
2017-04-08T05:58:10.134Z,22.91
2017-04-08T05:59:10.407Z,22.8
2017-04-08T06:00:10.411Z,22.94
2017-04-08T06:01:10.418Z,22.91
2017-04-08T06:02:10.517Z,22.94
2017-04-08T06:03:10.525Z,22.9
2017-04-08T06:04:10.489Z,22.9
2017-04-08T06:05:10.445Z,22.86
2017-04-08T06:06:10.491Z,22.92
2017-04-08T06:07:10.512Z,22.8
2017-04-08T06:08:10.500Z,22.9
2017-04-08T06:09:10.470Z,22.91
2017-04-08T06:10:10.471Z,22.94
2017-04-08T06:11:10.477Z,22.94
2017-04-08T06:12:10.494Z,22.91
2017-04-08T06:13:10.222Z,22.8
2017-04-08T06:14:10.624Z,22.83
2017-04-08T06:15:10.545Z,22.86
2017-04-08T06:16:10.520Z,22.9
2017-04-08T06:17:10.505Z,22.85
2017-04-08T06:18:10.523Z,22.88
2017-04-08T06:19:10.521Z,22.91
2017-04-08T06:20:10.534Z,22.92
2017-04-08T06:21:10.531Z,22.83
2017-04-08T06:22:10.587Z,22.9
2017-04-08T06:23:10.232Z,22.88
2017-04-08T06:24:10.556Z,22.94
2017-04-08T06:25:10.291Z,22.97
2017-04-08T06:26:10.562Z,22.85
2017-04-08T06:27:10.584Z,22.92
2017-04-08T06:28:10.269Z,22.86
2017-04-08T06:29:10.313Z,22.92
2017-04-08T06:30:10.635Z,22.85
2017-04-08T06:31:10.341Z,22.86
2017-04-08T06:32:10.289Z,22.91
2017-04-08T06:33:10.599Z,22.9
2017-04-08T06:34:10.664Z,22.88
2017-04-08T06:35:10.306Z,22.9
2017-04-08T06:36:10.676Z,22.94
2017-04-08T06:37:10.681Z,22.86
2017-04-08T06:38:10.644Z,23
2017-04-08T06:39:10.337Z,22.98
2017-04-08T06:40:10.652Z,22.92
2017-04-08T06:41:10.713Z,22.98
2017-04-08T06:42:10.668Z,23.04
2017-04-08T06:43:10.668Z,22.94
2017-04-08T06:44:10.730Z,22.98
2017-04-08T06:45:10.372Z,22.97
2017-04-08T06:46:10.697Z,22.9
2017-04-08T06:47:10.750Z,22.94
2017-04-08T06:48:10.699Z,22.86
2017-04-08T06:49:10.719Z,22.86
2017-04-08T06:50:10.893Z,22.91
2017-04-08T06:51:10.905Z,22.95
2017-04-08T06:52:10.835Z,22.94
2017-04-08T06:53:10.476Z,22.85
2017-04-08T06:54:10.787Z,22.85
2017-04-08T06:55:10.842Z,22.94
2017-04-08T06:56:11.261Z,22.85
2017-04-08T06:57:10.762Z,22.97
2017-04-08T06:58:10.766Z,22.92
2017-04-08T06:59:10.878Z,22.92
2017-04-08T07:00:10.516Z,22.95
2017-04-08T07:01:10.776Z,22.94
2017-04-08T07:02:10.842Z,22.97
2017-04-08T07:03:10.481Z,22.83
2017-04-08T07:04:10.893Z,22.82
2017-04-08T07:05:10.856Z,22.86
2017-04-08T07:06:10.502Z,22.95
2017-04-08T07:07:10.874Z,22.9
2017-04-08T07:08:10.881Z,22.97
2017-04-08T07:09:10.828Z,22.83
2017-04-08T07:10:10.841Z,22.95
2017-04-08T07:11:10.890Z,22.82
2017-04-08T07:12:10.952Z,22.94
2017-04-08T07:13:10.858Z,22.9
2017-04-08T07:14:10.648Z,22.9
2017-04-08T07:15:10.871Z,22.83
2017-04-08T07:16:10.879Z,22.86
2017-04-08T07:17:10.926Z,22.86
2017-04-08T07:18:10.942Z,22.86
2017-04-08T07:19:10.884Z,22.83
2017-04-08T07:20:10.903Z,22.9
2017-04-08T07:21:10.915Z,22.86
2017-04-08T07:22:10.916Z,22.94
2017-04-08T07:23:10.646Z,22.85
2017-04-08T07:24:10.966Z,22.94
2017-04-08T07:25:11.013Z,22.92
2017-04-08T07:26:10.996Z,22.82
2017-04-08T07:27:11.000Z,22.86
2017-04-08T07:28:10.641Z,22.9
2017-04-08T07:29:10.956Z,22.88
2017-04-08T07:30:10.638Z,23.02
2017-04-08T07:31:10.648Z,23.13
2017-04-08T07:32:10.978Z,23.19
2017-04-08T07:33:11.033Z,23.36
2017-04-08T07:34:10.984Z,23.55
2017-04-08T07:35:10.994Z,23.61
2017-04-08T07:36:11.055Z,23.69
2017-04-08T07:37:10.741Z,23.8
2017-04-08T07:38:11.105Z,23.95
2017-04-08T07:39:10.701Z,24.03
2017-04-08T07:40:11.025Z,24.08
2017-04-08T07:41:10.711Z,24.22
2017-04-08T07:42:10.828Z,24.3
2017-04-08T07:43:11.045Z,24.32
2017-04-08T07:44:11.047Z,24.46
2017-04-08T07:45:11.466Z,24.5
2017-04-08T07:46:11.162Z,24.61
2017-04-08T07:47:10.754Z,24.65
2017-04-08T07:48:11.074Z,24.76
2017-04-08T07:49:11.073Z,24.85
2017-04-08T07:50:10.767Z,24.93
2017-04-08T07:51:11.095Z,24.91
2017-04-08T07:52:11.194Z,24.93
2017-04-08T07:53:11.200Z,25.02
2017-04-08T07:54:11.162Z,24.98
2017-04-08T07:55:10.853Z,25.08
2017-04-08T07:56:10.816Z,25.15
2017-04-08T07:57:11.138Z,25.15
2017-04-08T07:58:11.192Z,25.15
2017-04-08T07:59:11.137Z,25.21
2017-04-08T08:00:11.143Z,25.25
2017-04-08T08:01:10.864Z,25.21
2017-04-08T08:02:11.206Z,25.2
2017-04-08T08:03:11.222Z,25.27
2017-04-08T08:04:11.179Z,25.21
2017-04-08T08:05:11.236Z,25.21
2017-04-08T08:06:11.179Z,25.24
2017-04-08T08:07:11.190Z,25.4
2017-04-08T08:08:10.571Z,25.36
2017-04-08T08:09:11.218Z,25.39
2017-04-08T08:10:11.517Z,25.36
2017-04-08T08:11:10.910Z,25.36
2017-04-08T08:12:10.926Z,25.46
2017-04-08T08:13:11.234Z,25.47
2017-04-08T08:14:10.973Z,25.43
2017-04-08T08:15:11.241Z,25.55
2017-04-08T08:16:10.989Z,25.46
2017-04-08T08:17:11.254Z,25.5
2017-04-08T08:18:11.277Z,25.45
2017-04-08T08:19:11.276Z,25.55
2017-04-08T08:20:11.289Z,25.54
2017-04-08T08:21:11.337Z,25.51
2017-04-08T08:22:11.341Z,25.57
2017-04-08T08:23:11.305Z,25.69
2017-04-08T08:24:11.307Z,25.62
2017-04-08T08:25:11.370Z,25.61
2017-04-08T08:26:11.428Z,25.76
2017-04-08T08:27:11.096Z,25.76
2017-04-08T08:28:11.350Z,25.77
2017-04-08T08:29:11.334Z,25.67
2017-04-08T08:30:11.351Z,25.6
2017-04-08T08:31:11.404Z,25.7
2017-04-08T08:32:11.803Z,25.7
2017-04-08T08:33:11.405Z,25.67
2017-04-08T08:34:11.110Z,25.6
2017-04-08T08:35:13.091Z,25.7
2017-04-08T08:36:11.082Z,25.58
2017-04-08T08:37:11.444Z,25.72
2017-04-08T08:38:11.448Z,25.7
2017-04-08T08:39:11.518Z,25.72
2017-04-08T08:40:11.475Z,25.58
2017-04-08T08:41:11.446Z,25.58
2017-04-08T08:42:11.119Z,25.58
2017-04-08T08:43:11.171Z,25.55
2017-04-08T08:44:11.497Z,25.58
2017-04-08T08:45:11.190Z,25.6
2017-04-08T08:46:11.461Z,25.67
2017-04-08T08:47:11.473Z,25.61
2017-04-08T08:48:11.517Z,25.55
2017-04-08T08:49:11.212Z,25.58
2017-04-08T08:50:11.272Z,25.7
2017-04-08T08:51:11.174Z,25.73
2017-04-08T08:52:11.552Z,25.79
2017-04-08T08:53:11.547Z,25.62
2017-04-08T08:54:11.242Z,25.61
2017-04-08T08:55:12.870Z,25.73
2017-04-08T08:56:11.325Z,25.73
2017-04-08T08:57:11.529Z,25.67
2017-04-08T08:58:11.543Z,25.73
2017-04-08T08:59:11.591Z,25.69
2017-04-08T09:00:11.559Z,25.67
2017-04-08T09:01:11.557Z,25.77
2017-04-08T09:02:11.623Z,25.82
2017-04-08T09:03:11.666Z,25.82
2017-04-08T09:04:11.576Z,25.77
2017-04-08T09:05:11.580Z,25.72
2017-04-08T09:06:11.774Z,25.65
2017-04-08T09:07:11.605Z,25.72
2017-04-08T09:08:11.653Z,25.67
2017-04-08T09:09:11.618Z,25.72
2017-04-08T09:10:11.626Z,25.65
2017-04-08T09:11:11.644Z,25.6
2017-04-08T09:12:11.633Z,25.52
2017-04-08T09:13:11.329Z,25.52
2017-04-08T09:14:11.750Z,25.54
2017-04-08T09:15:11.395Z,25.54
2017-04-08T09:16:11.759Z,25.54
2017-04-08T09:17:11.731Z,25.45
2017-04-08T09:18:11.673Z,25.52
2017-04-08T09:19:11.680Z,25.4
2017-04-08T09:20:11.691Z,25.47
2017-04-08T09:21:11.744Z,25.51
2017-04-08T09:22:11.755Z,25.46
2017-04-08T09:23:11.705Z,25.54
2017-04-08T09:24:11.770Z,25.61
2017-04-08T09:25:11.148Z,25.55
2017-04-08T09:26:12.723Z,25.52
2017-04-08T09:27:11.757Z,25.51
2017-04-08T09:28:11.740Z,25.61
2017-04-08T09:29:11.750Z,25.75
2017-04-08T09:30:11.768Z,25.64
2017-04-08T09:31:11.809Z,25.6
2017-04-08T09:32:11.515Z,25.69
2017-04-08T09:33:11.481Z,25.76
2017-04-08T09:34:11.788Z,25.72
2017-04-08T09:35:11.531Z,25.77
2017-04-08T09:36:11.801Z,25.7
2017-04-08T09:37:11.871Z,25.7
2017-04-08T09:38:11.550Z,25.76
2017-04-08T09:39:11.202Z,25.8
2017-04-08T09:40:11.876Z,25.73
2017-04-08T09:41:11.887Z,25.61
2017-04-08T09:42:11.530Z,25.79
2017-04-08T09:43:11.864Z,25.79
2017-04-08T09:44:11.915Z,25.72
2017-04-08T09:45:11.861Z,25.57
2017-04-08T09:46:11.561Z,25.54
2017-04-08T09:47:11.928Z,25.58
2017-04-08T09:48:11.892Z,25.58
2017-04-08T09:49:11.906Z,25.46
2017-04-08T09:50:11.944Z,25.55
2017-04-08T09:51:11.705Z,25.58
2017-04-08T09:52:11.913Z,25.47
2017-04-08T09:53:12.367Z,25.51
2017-04-08T09:54:11.619Z,25.47
2017-04-08T09:55:11.947Z,25.51
2017-04-08T09:56:11.724Z,25.61
2017-04-08T09:57:11.999Z,25.55
2017-04-08T09:58:12.015Z,25.5
2017-04-08T09:59:11.648Z,25.57
2017-04-08T10:00:11.986Z,25.55
2017-04-08T10:01:12.044Z,25.5
2017-04-08T10:02:11.768Z,25.61
2017-04-08T10:03:12.002Z,25.43
2017-04-08T10:04:12.099Z,25.47
2017-04-08T10:05:11.697Z,25.52
2017-04-08T10:06:12.073Z,25.57
2017-04-08T10:07:12.077Z,25.58
2017-04-08T10:08:11.400Z,25.61
2017-04-08T10:09:12.088Z,25.54
2017-04-08T10:10:12.051Z,25.6
2017-04-08T10:11:12.074Z,25.6
2017-04-08T10:12:11.797Z,25.6
2017-04-08T10:13:11.747Z,25.67
2017-04-08T10:14:12.077Z,25.58
2017-04-08T10:15:12.082Z,25.55
2017-04-08T10:16:12.386Z,25.54
2017-04-08T10:17:12.153Z,25.65
2017-04-08T10:18:12.149Z,25.57
2017-04-08T10:19:12.156Z,25.6
2017-04-08T10:20:12.121Z,25.69
2017-04-08T10:21:11.860Z,25.65
2017-04-08T10:22:12.259Z,25.62
2017-04-08T10:23:12.241Z,25.61
2017-04-08T10:24:12.146Z,25.57
2017-04-08T10:25:12.167Z,25.57
2017-04-08T10:26:12.551Z,25.5
2017-04-08T10:27:12.227Z,25.52
2017-04-08T10:28:12.232Z,25.5
2017-04-08T10:29:12.333Z,25.47
2017-04-08T10:30:12.198Z,25.57
2017-04-08T10:31:12.245Z,25.51
2017-04-08T10:32:12.049Z,25.45
2017-04-08T10:33:12.258Z,25.54
2017-04-08T10:34:11.903Z,25.46
2017-04-08T10:35:11.961Z,25.4
2017-04-08T10:36:11.979Z,25.35
2017-04-08T10:37:11.986Z,25.4
2017-04-08T10:38:12.305Z,25.47
2017-04-08T10:39:11.987Z,25.36
2017-04-08T10:40:12.314Z,25.42
2017-04-08T10:41:11.962Z,25.35
2017-04-08T10:42:11.965Z,25.33
2017-04-08T10:43:12.321Z,25.39
2017-04-08T10:44:12.339Z,25.4
2017-04-08T10:45:12.300Z,25.39
2017-04-08T10:46:12.404Z,25.36
2017-04-08T10:47:12.322Z,25.36
2017-04-08T10:48:12.440Z,25.23
2017-04-08T10:49:12.329Z,25.28
2017-04-08T10:50:13.101Z,25.21
2017-04-08T10:51:12.072Z,25.24
2017-04-08T10:52:12.399Z,25.13
2017-04-08T10:53:12.354Z,25.25
2017-04-08T10:54:12.388Z,25.17
2017-04-08T10:55:12.379Z,25.21
2017-04-08T10:56:12.427Z,25.21
2017-04-08T10:57:12.881Z,25.24
2017-04-08T10:58:12.085Z,25.13
2017-04-08T10:59:12.133Z,25.17
2017-04-08T11:00:12.460Z,25.14
2017-04-08T11:01:12.413Z,25.2
2017-04-08T11:02:12.579Z,25.09
2017-04-08T11:03:12.482Z,25.14
2017-04-08T11:04:12.434Z,25.1
2017-04-08T11:05:12.493Z,25.18
2017-04-08T11:06:12.455Z,25.03
2017-04-08T11:07:12.248Z,25.05
2017-04-08T11:08:12.473Z,25.1
2017-04-08T11:09:12.481Z,25.03
2017-04-08T11:10:12.223Z,25.06
2017-04-08T11:11:12.538Z,25.08
2017-04-08T11:12:12.188Z,25.05
2017-04-08T11:13:12.290Z,25.14
2017-04-08T11:14:12.507Z,25.13
2017-04-08T11:15:12.563Z,25.05
2017-04-08T11:16:12.519Z,25.13
2017-04-08T11:17:12.538Z,25.14
2017-04-08T11:18:12.227Z,25.14
2017-04-08T11:19:12.543Z,25.06
2017-04-08T11:20:12.600Z,25.09
2017-04-08T11:21:11.985Z,25.08
2017-04-08T11:22:12.250Z,25.1
2017-04-08T11:23:12.647Z,25.06
2017-04-08T11:24:12.590Z,25.1
2017-04-08T11:25:12.622Z,25.05
2017-04-08T11:26:12.286Z,25.08
2017-04-08T11:27:12.337Z,25.09
2017-04-08T11:28:12.708Z,25.08
2017-04-08T11:29:12.672Z,25.09
2017-04-08T11:30:12.322Z,25.08
2017-04-08T11:31:12.627Z,25.09
2017-04-08T11:32:12.740Z,25.05
2017-04-08T11:33:12.344Z,25.05
2017-04-08T11:34:12.649Z,25.14
2017-04-08T11:35:12.715Z,25.1
2017-04-08T11:36:12.660Z,25.13
2017-04-08T11:37:12.687Z,25.15
2017-04-08T11:38:12.725Z,25.14
2017-04-08T11:39:12.746Z,25.18
2017-04-08T11:40:12.698Z,25.18
2017-04-08T11:41:12.804Z,25.09
2017-04-08T11:42:12.390Z,25.28
2017-04-08T11:43:12.771Z,25.21
2017-04-08T11:44:12.771Z,25.13
2017-04-08T11:45:12.784Z,25.18
2017-04-08T11:46:12.740Z,25.27
2017-04-08T11:47:12.806Z,25.15
2017-04-08T11:48:12.744Z,25.17
2017-04-08T11:49:12.755Z,25.18
2017-04-08T11:50:12.767Z,25.08
2017-04-08T11:51:13.010Z,25.08
2017-04-08T11:52:12.845Z,25.1
2017-04-08T11:53:12.477Z,25.18
2017-04-08T11:54:12.841Z,25.14
2017-04-08T11:55:12.851Z,25.14
2017-04-08T11:56:12.871Z,25.2
2017-04-08T11:57:12.811Z,25.2
2017-04-08T11:58:12.515Z,25.17
2017-04-08T11:59:12.562Z,25.23
2017-04-08T12:00:12.886Z,25.15
2017-04-08T12:01:12.890Z,25.17
2017-04-08T12:02:12.593Z,25.23
2017-04-08T12:03:12.859Z,25.1
2017-04-08T12:04:12.867Z,25.2
2017-04-08T12:05:12.923Z,25.13
2017-04-08T12:06:12.878Z,25.2
2017-04-08T12:07:12.894Z,25.21
2017-04-08T12:08:12.628Z,25.18
2017-04-08T12:09:13.113Z,25.24
2017-04-08T12:10:12.649Z,25.15
2017-04-08T12:11:12.976Z,25.15
2017-04-08T12:12:12.704Z,25.21
2017-04-08T12:13:12.974Z,25.1
2017-04-08T12:14:12.986Z,25.14
2017-04-08T12:15:12.949Z,25.13
2017-04-08T12:16:12.956Z,25.21
2017-04-08T12:17:12.646Z,25.23
2017-04-08T12:18:12.970Z,25.13
2017-04-08T12:19:12.713Z,25.18
2017-04-08T12:20:12.723Z,25.1
2017-04-08T12:21:13.092Z,25.14
2017-04-08T12:22:13.099Z,25.15
2017-04-08T12:23:13.054Z,25.13
2017-04-08T12:24:13.053Z,25.18
2017-04-08T12:25:13.028Z,25.21
2017-04-08T12:26:13.026Z,25.13
2017-04-08T12:27:13.079Z,25.17
2017-04-08T12:28:13.141Z,25.2
2017-04-08T12:29:13.044Z,25.08
2017-04-08T12:30:13.056Z,25.08
2017-04-08T12:31:13.071Z,25.06
2017-04-08T12:32:12.753Z,25.15
2017-04-08T12:33:13.119Z,25.14
2017-04-08T12:34:13.130Z,25.05
2017-04-08T12:35:12.824Z,25.18
2017-04-08T12:36:12.776Z,25.1
2017-04-08T12:37:14.004Z,25.18
2017-04-08T12:38:13.467Z,25.14
2017-04-08T12:39:13.214Z,25.09
2017-04-08T12:40:13.120Z,25.18
2017-04-08T12:41:12.817Z,25.17
2017-04-08T12:42:13.196Z,25.18
2017-04-08T12:43:13.244Z,25.25
2017-04-08T12:44:13.163Z,25.23
2017-04-08T12:45:12.841Z,25.33
2017-04-08T12:46:13.166Z,25.27
2017-04-08T12:47:12.857Z,25.23
2017-04-08T12:48:13.193Z,25.15
2017-04-08T12:49:13.242Z,25.21
2017-04-08T12:50:13.243Z,25.2
2017-04-08T12:51:13.258Z,25.23
2017-04-08T12:52:12.896Z,25.27
2017-04-08T12:53:12.906Z,25.21
2017-04-08T12:54:12.962Z,25.24
2017-04-08T12:55:12.975Z,25.23